createdAt,value
2023-03-06T00:00:50.509Z,75.10
2023-03-06T00:03:17.290Z,75.00
2023-03-06T00:05:44.109Z,74.89
2023-03-06T00:08:11.331Z,74.79
2023-03-06T00:10:38.733Z,75.18
2023-03-06T00:13:08.207Z,74.89
2023-03-06T00:15:36.044Z,75.06
2023-03-06T00:18:06.815Z,75.21
2023-03-06T00:20:34.826Z,75.15
2023-03-06T00:23:02.042Z,75.23
2023-03-06T00:25:28.737Z,75.13
2023-03-06T00:27:55.401Z,75.35
2023-03-06T00:30:24.719Z,75.03
2023-03-06T00:32:52.777Z,75.40
2023-03-06T00:35:19.590Z,75.15
2023-03-06T00:37:46.403Z,75.08
2023-03-06T00:40:15.985Z,75.35
2023-03-06T00:42:42.754Z,75.14
2023-03-06T00:45:10.239Z,74.94
2023-03-06T00:47:37.126Z,75.63
2023-03-06T00:50:04.655Z,75.00
2023-03-06T00:52:31.444Z,75.34
2023-03-06T00:54:58.151Z,75.45
2023-03-06T00:57:25.159Z,75.17
2023-03-06T00:59:52.050Z,75.22
2023-03-06T01:02:18.801Z,75.13
2023-03-06T01:04:45.472Z,75.25
2023-03-06T01:07:12.349Z,75.07
2023-03-06T01:09:39.348Z,75.66
2023-03-06T01:12:06.241Z,75.68
2023-03-06T01:14:33.114Z,75.42
2023-03-06T01:16:59.774Z,75.22
2023-03-06T01:19:26.495Z,75.79
2023-03-06T01:21:53.383Z,75.64
2023-03-06T01:24:19.969Z,75.56
2023-03-06T01:26:46.643Z,75.96
2023-03-06T01:29:13.451Z,75.62
2023-03-06T01:31:40.181Z,75.91
2023-03-06T01:34:06.926Z,76.25
2023-03-06T01:36:33.913Z,75.96
2023-03-06T01:39:00.547Z,75.88
2023-03-06T01:41:27.251Z,76.12
2023-03-06T01:43:54.263Z,75.83
2023-03-06T01:46:30.592Z,76.06
2023-03-06T01:49:02.928Z,76.19
2023-03-06T01:51:35.324Z,76.06
2023-03-06T01:54:07.680Z,76.20
2023-03-06T01:56:35.081Z,76.32
2023-03-06T01:59:02.837Z,76.25
2023-03-06T02:01:31.149Z,76.33
2023-03-06T02:03:59.622Z,76.65
2023-03-06T02:06:27.157Z,76.63
2023-03-06T02:08:54.712Z,76.85
2023-03-06T02:11:25.751Z,77.01
2023-03-06T02:13:54.665Z,76.89
2023-03-06T02:16:26.675Z,76.79
2023-03-06T02:18:53.902Z,77.08
2023-03-06T02:21:25.417Z,76.65
2023-03-06T02:24:12.395Z,76.91
2023-03-06T02:26:41.988Z,77.22
2023-03-06T02:29:09.302Z,76.92
2023-03-06T02:31:36.189Z,76.89
2023-03-06T02:34:15.002Z,77.41
2023-03-06T02:36:46.075Z,77.43
2023-03-06T02:39:13.628Z,76.94
2023-03-06T02:41:41.123Z,77.08
2023-03-06T02:44:08.083Z,77.11
2023-03-06T02:46:34.768Z,77.15
2023-03-06T02:49:01.535Z,77.49
2023-03-06T02:51:28.589Z,77.27
2023-03-06T02:53:55.237Z,77.59
2023-03-06T02:56:22.458Z,77.48
2023-03-06T02:58:49.190Z,77.68
2023-03-06T03:01:16.041Z,77.42
2023-03-06T03:03:42.681Z,77.44
2023-03-06T03:06:09.723Z,77.29
2023-03-06T03:08:36.571Z,77.69
2023-03-06T03:11:04.591Z,77.71
2023-03-06T03:13:31.326Z,77.71
2023-03-06T03:16:00.261Z,77.90
2023-03-06T03:18:27.172Z,77.59
2023-03-06T03:20:54.892Z,78.24
2023-03-06T03:23:22.374Z,78.08
2023-03-06T03:25:49.276Z,77.71
2023-03-06T03:28:16.403Z,78.44
2023-03-06T03:30:43.191Z,78.36
2023-03-06T03:33:10.318Z,78.11
2023-03-06T03:35:37.319Z,78.63
2023-03-06T03:38:03.990Z,78.27
2023-03-06T03:40:30.787Z,78.81
2023-03-06T03:42:57.804Z,78.64
2023-03-06T03:45:24.471Z,78.86
2023-03-06T03:47:53.292Z,78.98
2023-03-06T03:50:20.316Z,78.64
2023-03-06T03:52:47.015Z,78.69
2023-03-06T03:55:13.702Z,79.16
2023-03-06T03:57:40.503Z,79.04
2023-03-06T04:00:08.161Z,78.64
2023-03-06T04:02:35.004Z,78.59
2023-03-06T04:05:01.957Z,78.79
2023-03-06T04:07:28.563Z,78.79
2023-03-06T04:09:55.255Z,79.15
2023-03-06T04:12:22.174Z,78.86
2023-03-06T04:14:48.814Z,78.90
2023-03-06T04:17:15.455Z,79.05
2023-03-06T04:19:42.196Z,79.21
2023-03-06T04:22:08.892Z,79.01
2023-03-06T04:24:35.680Z,79.26
2023-03-06T04:27:02.411Z,79.26
2023-03-06T04:29:29.089Z,79.27
2023-03-06T04:31:55.737Z,79.22
2023-03-06T04:34:22.461Z,79.08
2023-03-06T04:36:49.180Z,79.24
2023-03-06T04:39:15.822Z,79.32
2023-03-06T04:41:42.902Z,78.89
2023-03-06T04:44:10.080Z,79.20
2023-03-06T04:46:36.982Z,79.29
2023-03-06T04:49:04.525Z,78.92
2023-03-06T04:51:31.478Z,79.13
2023-03-06T04:53:58.542Z,79.27
2023-03-06T04:56:25.359Z,79.02
2023-03-06T04:58:52.090Z,78.91
2023-03-06T05:01:18.832Z,79.32
2023-03-06T05:03:45.852Z,79.31
2023-03-06T05:06:12.585Z,78.94
2023-03-06T05:08:39.330Z,79.07
2023-03-06T05:11:06.236Z,78.89
2023-03-06T05:13:33.294Z,79.27
2023-03-06T05:16:05.088Z,79.06
2023-03-06T05:18:33.021Z,78.97
2023-03-06T05:21:00.193Z,78.89
2023-03-06T05:23:31.372Z,78.86
2023-03-06T05:25:58.485Z,78.80
2023-03-06T05:28:26.098Z,78.69
2023-03-06T05:30:52.812Z,78.78
2023-03-06T05:33:19.774Z,78.92
2023-03-06T05:35:47.958Z,78.65
2023-03-06T05:38:15.814Z,78.51
2023-03-06T05:40:44.360Z,78.84
2023-03-06T05:43:12.416Z,79.05
2023-03-06T05:45:40.626Z,78.63
2023-03-06T05:48:08.263Z,78.79
2023-03-06T05:50:35.394Z,78.86
2023-03-06T05:53:02.125Z,78.61
2023-03-06T05:55:29.075Z,78.47
2023-03-06T05:57:55.704Z,78.57
2023-03-06T06:00:22.841Z,78.45
2023-03-06T06:02:49.668Z,78.87
2023-03-06T06:05:16.561Z,78.76
2023-03-06T06:07:43.253Z,78.70
2023-03-06T06:10:11.565Z,78.55
2023-03-06T06:12:38.338Z,78.63
2023-03-06T06:15:06.613Z,78.58
2023-03-06T06:17:33.588Z,78.74
2023-03-06T06:20:00.400Z,78.62
2023-03-06T06:22:27.040Z,78.96
2023-03-06T06:24:54.072Z,78.68
2023-03-06T06:27:20.784Z,78.92
2023-03-06T06:29:51.380Z,78.76
2023-03-06T06:32:18.105Z,78.76
2023-03-06T06:34:44.815Z,78.97
2023-03-06T06:37:11.685Z,78.81
2023-03-06T06:39:38.476Z,78.88
2023-03-06T06:42:28.148Z,78.87
2023-03-06T06:44:52.475Z,78.58
2023-03-06T06:47:24.655Z,78.58
2023-03-06T06:49:54.108Z,78.54
2023-03-06T06:52:21.797Z,78.97
2023-03-06T06:54:48.691Z,78.73
2023-03-06T06:57:15.989Z,78.72
2023-03-06T06:59:42.835Z,78.63
2023-03-06T07:02:14.225Z,78.63
2023-03-06T07:04:56.146Z,78.61
2023-03-06T07:07:25.417Z,78.59
2023-03-06T07:09:53.281Z,78.62
2023-03-06T07:12:20.076Z,78.88
2023-03-06T07:14:47.035Z,78.99
2023-03-06T07:17:14.167Z,78.41
2023-03-06T07:19:40.936Z,78.46
2023-03-06T07:22:07.837Z,78.59
2023-03-06T07:24:34.991Z,78.67
2023-03-06T07:27:01.836Z,78.30
2023-03-06T07:29:28.530Z,79.07
2023-03-06T07:31:55.392Z,78.18
2023-03-06T07:34:22.500Z,78.55
2023-03-06T07:36:50.878Z,78.63
2023-03-06T07:39:18.146Z,78.74
2023-03-06T07:41:44.861Z,78.27
2023-03-06T07:44:11.571Z,78.77
2023-03-06T07:46:38.347Z,78.57
2023-03-06T07:49:05.106Z,78.86
2023-03-06T07:51:31.807Z,78.73
2023-03-06T07:53:58.455Z,78.61
2023-03-06T07:56:25.235Z,78.74
2023-03-06T07:58:51.861Z,78.10
2023-03-06T08:01:21.040Z,78.52
2023-03-06T08:03:50.112Z,78.48
2023-03-06T08:06:25.672Z,78.53
2023-03-06T08:08:54.297Z,78.29
2023-03-06T08:11:24.123Z,78.16
2023-03-06T08:13:52.987Z,78.20
2023-03-06T08:16:25.506Z,78.38
2023-03-06T08:18:52.514Z,78.36
2023-03-06T08:21:22.125Z,78.57
2023-03-06T08:23:48.883Z,78.14
2023-03-06T08:26:18.557Z,78.46
2023-03-06T08:28:45.640Z,78.33
2023-03-06T08:31:23.215Z,78.41
2023-03-06T08:33:50.023Z,78.70
2023-03-06T08:36:17.032Z,78.47
2023-03-06T08:38:43.731Z,78.46
2023-03-06T08:41:10.656Z,77.84
2023-03-06T08:43:37.456Z,77.66
2023-03-06T08:46:04.268Z,77.86
2023-03-06T08:48:31.140Z,77.80
2023-03-06T08:50:57.908Z,77.42
2023-03-06T08:53:40.499Z,77.85
2023-03-06T08:56:25.515Z,77.38
2023-03-06T08:58:53.355Z,77.68
2023-03-06T09:01:23.639Z,77.26
2023-03-06T09:03:51.175Z,77.37
2023-03-06T09:06:17.827Z,77.47
2023-03-06T09:08:44.769Z,77.35
2023-03-06T09:11:15.956Z,77.10
2023-03-06T09:13:43.550Z,77.31
2023-03-06T09:16:11.699Z,76.82
2023-03-06T09:18:38.660Z,76.78
2023-03-06T09:21:06.067Z,76.76
2023-03-06T09:23:32.854Z,76.72
2023-03-06T09:26:00.900Z,76.67
2023-03-06T09:28:27.934Z,77.04
2023-03-06T09:30:55.156Z,76.33
2023-03-06T09:33:22.533Z,76.64
2023-03-06T09:35:53.101Z,76.18
2023-03-06T09:38:22.063Z,76.01
2023-03-06T09:40:57.825Z,76.07
2023-03-06T09:43:30.426Z,76.36
2023-03-06T09:45:59.076Z,76.01
2023-03-06T09:48:41.714Z,75.40
2023-03-06T09:51:15.336Z,75.13
2023-03-06T09:54:16.071Z,74.63
2023-03-06T09:56:51.511Z,72.44
2023-03-06T09:59:22.028Z,73.93
2023-03-06T10:02:10.633Z,72.84
2023-03-06T10:04:51.971Z,73.57
2023-03-06T10:07:28.322Z,72.73
2023-03-06T10:10:02.893Z,73.15
2023-03-06T10:12:38.107Z,73.11
2023-03-06T10:15:20.620Z,72.06
2023-03-06T10:17:48.330Z,72.68
2023-03-06T10:20:17.314Z,71.41
2023-03-06T10:23:01.267Z,71.10
2023-03-06T10:25:36.264Z,70.23
2023-03-06T10:28:30.785Z,69.79
2023-03-06T10:31:11.691Z,69.60
2023-03-06T10:33:56.785Z,69.11
2023-03-06T10:36:27.320Z,69.36
2023-03-06T10:38:55.058Z,66.12
2023-03-06T10:41:33.043Z,67.20
2023-03-06T10:43:59.672Z,67.45
2023-03-06T10:46:29.303Z,67.40
2023-03-06T10:49:01.435Z,66.86
2023-03-06T10:51:29.492Z,66.55
2023-03-06T10:53:59.594Z,66.13
2023-03-06T10:56:33.958Z,65.48
2023-03-06T10:59:25.224Z,64.69
2023-03-06T11:01:54.843Z,65.35
2023-03-06T11:04:34.753Z,64.79
2023-03-06T11:07:12.890Z,64.10
2023-03-06T11:09:40.133Z,64.55
2023-03-06T11:12:42.521Z,64.02
2023-03-06T11:15:17.393Z,63.99
2023-03-06T11:18:09.205Z,63.67
2023-03-06T11:20:53.152Z,63.49
2023-03-06T11:23:42.909Z,63.17
2023-03-06T11:26:15.522Z,63.12
2023-03-06T11:28:50.018Z,62.84
2023-03-06T11:31:20.917Z,61.88
2023-03-06T11:34:14.543Z,61.48
2023-03-06T11:36:47.505Z,61.01
2023-03-06T11:39:56.321Z,61.02
2023-03-06T11:42:35.929Z,60.29
2023-03-06T11:45:14.902Z,61.39
2023-03-06T11:47:50.426Z,60.37
2023-03-06T11:50:31.285Z,60.19
2023-03-06T11:53:01.669Z,60.10
2023-03-06T11:55:55.639Z,59.77
2023-03-06T11:58:40.679Z,59.79
2023-03-06T12:01:22.363Z,59.39
2023-03-06T12:04:21.099Z,59.42
2023-03-06T12:06:56.952Z,59.06
2023-03-06T12:09:38.552Z,59.04
2023-03-06T12:12:20.696Z,58.82
2023-03-06T12:15:22.768Z,57.34
2023-03-06T12:18:17.159Z,57.89
2023-03-06T12:20:58.685Z,58.42
2023-03-06T12:23:34.215Z,57.80
2023-03-06T12:26:06.692Z,57.81
2023-03-06T12:29:01.394Z,57.43
2023-03-06T12:32:06.384Z,57.48
2023-03-06T12:35:16.623Z,57.64
2023-03-06T12:38:06.067Z,57.81
2023-03-06T12:40:47.957Z,57.32
2023-03-06T12:43:51.973Z,57.42
2023-03-06T12:46:26.958Z,57.19
2023-03-06T12:49:08.902Z,57.19
2023-03-06T12:51:36.589Z,57.62
2023-03-06T12:54:03.780Z,57.21
2023-03-06T12:56:33.142Z,56.38
2023-03-06T12:59:04.005Z,56.13
2023-03-06T13:02:02.426Z,54.69
2023-03-06T13:04:48.590Z,54.39
2023-03-06T13:07:23.017Z,54.73
2023-03-06T13:10:06.526Z,54.71
2023-03-06T13:12:50.677Z,55.01
2023-03-06T13:15:40.702Z,54.62
2023-03-06T13:18:22.584Z,54.52
2023-03-06T13:20:53.914Z,54.60
2023-03-06T13:23:29.589Z,54.63
2023-03-06T13:26:31.518Z,54.31
2023-03-06T13:28:58.720Z,54.58
2023-03-06T13:31:36.581Z,54.25
2023-03-06T13:34:05.403Z,53.92
2023-03-06T13:36:39.480Z,53.85
2023-03-06T13:39:13.035Z,53.79
2023-03-06T13:41:57.099Z,53.88
2023-03-06T13:44:23.775Z,54.09
2023-03-06T13:47:05.135Z,53.48
2023-03-06T13:49:33.249Z,53.86
2023-03-06T13:52:02.825Z,53.13
2023-03-06T13:54:49.787Z,52.48
2023-03-06T13:57:25.561Z,52.69
2023-03-06T14:00:10.325Z,52.66
2023-03-06T14:02:54.899Z,52.55
2023-03-06T14:05:22.523Z,52.05
2023-03-06T14:08:29.741Z,52.29
2023-03-06T14:11:04.060Z,52.36
2023-03-06T14:13:47.218Z,53.14
2023-03-06T14:16:23.040Z,52.54
2023-03-06T14:18:52.083Z,52.61
2023-03-06T14:21:37.476Z,51.62
2023-03-06T14:24:05.575Z,52.29
2023-03-06T14:26:44.931Z,52.50
2023-03-06T14:29:26.529Z,52.19
2023-03-06T14:31:56.369Z,52.50
2023-03-06T14:34:24.998Z,52.27
2023-03-06T14:36:53.929Z,51.84
2023-03-06T14:39:21.036Z,51.89
2023-03-06T14:41:47.897Z,50.82
2023-03-06T14:44:23.282Z,51.80
2023-03-06T14:46:52.836Z,51.55
2023-03-06T14:49:22.087Z,51.97
2023-03-06T14:51:54.069Z,51.88
2023-03-06T14:54:47.996Z,51.32
2023-03-06T14:57:20.032Z,52.03
2023-03-06T14:59:59.395Z,51.87
2023-03-06T15:02:33.035Z,51.88
2023-03-06T15:05:11.303Z,52.15
2023-03-06T15:07:38.410Z,52.66
2023-03-06T15:10:10.470Z,52.54
2023-03-06T15:12:38.927Z,52.60
2023-03-06T15:15:10.464Z,52.82
2023-03-06T15:17:45.135Z,52.97
2023-03-06T15:20:38.541Z,52.93
2023-03-06T15:23:16.611Z,53.36
2023-03-06T15:25:56.582Z,53.41
2023-03-06T15:28:37.223Z,53.79
2023-03-06T15:31:05.505Z,53.84
2023-03-06T15:33:32.198Z,53.98
2023-03-06T15:36:17.817Z,53.67
2023-03-06T15:38:46.670Z,54.32
2023-03-06T15:41:21.677Z,54.39
2023-03-06T15:43:48.289Z,54.45
2023-03-06T15:46:15.111Z,54.55
2023-03-06T15:48:56.054Z,54.71
2023-03-06T15:51:22.889Z,54.56
2023-03-06T15:53:50.277Z,54.47
2023-03-06T15:56:28.795Z,54.93
2023-03-06T15:59:00.301Z,55.05
2023-03-06T16:01:27.101Z,54.86
2023-03-06T16:03:53.835Z,55.10
2023-03-06T16:06:24.695Z,54.97
2023-03-06T16:08:52.190Z,55.21
2023-03-06T16:11:35.422Z,55.13
2023-03-06T16:14:18.911Z,55.29
2023-03-06T16:16:45.991Z,55.58
2023-03-06T16:19:25.978Z,55.79
2023-03-06T16:21:54.877Z,56.04
2023-03-06T16:24:21.970Z,56.21
2023-03-06T16:26:51.138Z,56.69
2023-03-06T16:29:19.949Z,56.91
2023-03-06T16:31:47.058Z,58.68
2023-03-06T16:34:14.476Z,59.20
2023-03-06T16:36:41.968Z,59.94
2023-03-06T16:39:20.635Z,60.58
2023-03-06T16:41:49.460Z,60.46
2023-03-06T16:44:16.489Z,61.13
2023-03-06T16:46:45.926Z,61.89
2023-03-06T16:49:30.995Z,65.08
2023-03-06T16:51:57.914Z,64.08
2023-03-06T16:54:26.208Z,63.84
2023-03-06T16:56:53.106Z,64.17
2023-03-06T16:59:19.819Z,64.55
2023-03-06T17:01:46.660Z,66.37
2023-03-06T17:04:13.720Z,66.19
2023-03-06T17:06:41.777Z,66.35
2023-03-06T17:09:10.764Z,67.39
2023-03-06T17:11:42.860Z,67.76
2023-03-06T17:14:09.666Z,67.63
2023-03-06T17:16:40.223Z,68.09
2023-03-06T17:19:07.403Z,68.96
2023-03-06T17:21:35.473Z,68.43
2023-03-06T17:24:03.850Z,68.19
2023-03-06T17:26:30.763Z,69.07
2023-03-06T17:28:57.771Z,68.92
2023-03-06T17:31:27.245Z,69.21
2023-03-06T17:34:01.867Z,68.88
2023-03-06T17:36:30.403Z,70.38
2023-03-06T17:38:58.899Z,69.91
2023-03-06T17:41:26.020Z,70.03
2023-03-06T17:43:55.028Z,70.39
2023-03-06T17:46:22.065Z,70.60
2023-03-06T17:48:48.894Z,70.72
2023-03-06T17:51:15.667Z,71.27
2023-03-06T17:53:42.371Z,71.45
2023-03-06T17:56:12.654Z,71.50
2023-03-06T17:58:39.403Z,71.72
2023-03-06T18:01:21.199Z,71.90
2023-03-06T18:03:50.029Z,72.24
2023-03-06T18:06:18.035Z,72.09
2023-03-06T18:08:46.093Z,71.91
2023-03-06T18:11:13.029Z,72.57
2023-03-06T18:13:42.885Z,72.59
2023-03-06T18:16:12.970Z,73.39
2023-03-06T18:18:40.411Z,72.95
2023-03-06T18:21:10.169Z,73.28
2023-03-06T18:23:38.033Z,73.19
2023-03-06T18:26:34.342Z,73.53
2023-03-06T18:29:04.629Z,73.45
2023-03-06T18:31:39.966Z,74.20
2023-03-06T18:34:10.721Z,74.28
2023-03-06T18:36:38.479Z,73.96
2023-03-06T18:39:09.740Z,74.88
2023-03-06T18:41:36.876Z,74.79
2023-03-06T18:44:04.491Z,74.82
2023-03-06T18:46:36.861Z,74.75
2023-03-06T18:49:04.554Z,75.34
2023-03-06T18:51:31.880Z,75.20
2023-03-06T18:54:03.457Z,74.91
2023-03-06T18:56:30.658Z,75.43
2023-03-06T18:59:01.985Z,75.20
2023-03-06T19:01:30.843Z,75.35
2023-03-06T19:04:02.508Z,76.23
2023-03-06T19:06:30.028Z,76.77
2023-03-06T19:09:01.868Z,75.90
2023-03-06T19:11:30.635Z,76.53
2023-03-06T19:13:57.799Z,76.00
2023-03-06T19:16:27.117Z,76.15
2023-03-06T19:18:55.857Z,76.45
2023-03-06T19:21:24.206Z,76.79
2023-03-06T19:23:51.368Z,76.67
2023-03-06T19:26:21.359Z,76.48
2023-03-06T19:28:49.278Z,76.62
2023-03-06T19:31:19.607Z,76.78
2023-03-06T19:33:47.751Z,76.98
2023-03-06T19:36:16.613Z,76.53
2023-03-06T19:38:43.643Z,77.27
2023-03-06T19:41:13.556Z,77.66
2023-03-06T19:43:41.589Z,77.31
2023-03-06T19:46:15.299Z,78.10
2023-03-06T19:48:42.739Z,77.49
2023-03-06T19:51:10.727Z,78.32
2023-03-06T19:53:39.674Z,78.38
2023-03-06T19:56:09.257Z,77.60
2023-03-06T19:58:36.682Z,77.85
2023-03-06T20:01:15.298Z,78.40
2023-03-06T20:03:42.707Z,78.29
2023-03-06T20:06:18.754Z,79.21
2023-03-06T20:08:46.959Z,77.95
2023-03-06T20:11:18.390Z,78.43
2023-03-06T20:13:47.815Z,78.33
2023-03-06T20:16:15.701Z,78.20
2023-03-06T20:18:42.621Z,78.83
2023-03-06T20:21:09.547Z,78.86
2023-03-06T20:23:36.443Z,78.78
2023-03-06T20:26:09.762Z,78.73
2023-03-06T20:28:38.677Z,78.50
2023-03-06T20:31:11.281Z,78.75
2023-03-06T20:33:38.113Z,78.85
2023-03-06T20:36:11.198Z,79.13
2023-03-06T20:38:39.035Z,78.93
2023-03-06T20:41:05.679Z,79.19
2023-03-06T20:43:32.473Z,79.21
2023-03-06T20:46:02.732Z,79.56
2023-03-06T20:48:30.018Z,79.54
2023-03-06T20:51:23.739Z,79.66
2023-03-06T20:53:53.197Z,79.39
2023-03-06T20:56:22.074Z,79.64
2023-03-06T20:58:48.862Z,79.52
2023-03-06T21:01:24.308Z,79.42
2023-03-06T21:03:52.126Z,80.02
2023-03-06T21:06:19.885Z,80.24
2023-03-06T21:08:47.275Z,79.51
2023-03-06T21:11:14.674Z,79.51
2023-03-06T21:13:41.950Z,79.48
2023-03-06T21:16:11.723Z,79.60
2023-03-06T21:18:38.503Z,80.02
2023-03-06T21:21:10.746Z,79.74
2023-03-06T21:23:38.297Z,79.59
2023-03-06T21:26:05.315Z,79.56
2023-03-06T21:28:32.658Z,79.54
2023-03-06T21:31:02.912Z,79.99
2023-03-06T21:33:29.800Z,79.82
2023-03-06T21:35:56.602Z,79.91
2023-03-06T21:38:23.398Z,80.21
2023-03-06T21:40:50.132Z,80.02
2023-03-06T21:43:17.657Z,80.14
2023-03-06T21:45:52.740Z,80.20
2023-03-06T21:48:19.660Z,80.07
2023-03-06T21:50:46.388Z,79.83
2023-03-06T21:53:13.144Z,80.20
2023-03-06T21:55:40.876Z,80.11
2023-03-06T21:58:08.727Z,79.87
2023-03-06T22:00:36.692Z,80.17
2023-03-06T22:03:04.735Z,80.08
2023-03-06T22:05:34.631Z,80.20
2023-03-06T22:08:01.497Z,79.88
2023-03-06T22:10:28.257Z,80.16
2023-03-06T22:12:55.186Z,79.88
2023-03-06T22:15:22.210Z,80.22
2023-03-06T22:17:49.343Z,79.86
2023-03-06T22:20:16.509Z,80.11
2023-03-06T22:22:44.012Z,80.28
2023-03-06T22:25:12.034Z,80.51
2023-03-06T22:27:39.036Z,80.17
2023-03-06T22:30:06.654Z,80.27
2023-03-06T22:32:33.566Z,80.14
2023-03-06T22:35:00.403Z,80.53
2023-03-06T22:37:27.357Z,80.40
2023-03-06T22:39:54.429Z,80.40
2023-03-06T22:42:21.176Z,80.31
2023-03-06T22:44:47.962Z,80.13
2023-03-06T22:47:14.805Z,80.49
2023-03-06T22:49:41.881Z,80.29
2023-03-06T22:52:09.970Z,80.31
2023-03-06T22:54:36.749Z,80.74
2023-03-06T22:57:03.456Z,80.63
2023-03-06T22:59:30.497Z,80.75
2023-03-06T23:01:57.171Z,80.66
2023-03-06T23:04:23.982Z,80.54
2023-03-06T23:06:51.236Z,80.34
2023-03-06T23:09:22.423Z,80.45
2023-03-06T23:11:50.314Z,80.67
2023-03-06T23:14:18.845Z,80.27
2023-03-06T23:16:45.645Z,80.70
2023-03-06T23:19:12.512Z,80.71
2023-03-06T23:21:39.466Z,80.74
2023-03-06T23:24:07.142Z,80.49
2023-03-06T23:26:37.139Z,80.85
2023-03-06T23:29:04.487Z,80.67
2023-03-06T23:31:31.668Z,80.79
2023-03-06T23:34:01.095Z,80.68
2023-03-06T23:36:29.150Z,80.48
2023-03-06T23:38:56.255Z,80.86
2023-03-06T23:41:23.805Z,80.80
2023-03-06T23:43:52.875Z,80.69
2023-03-06T23:46:20.894Z,80.56
2023-03-06T23:48:47.718Z,80.88
2023-03-06T23:51:17.988Z,80.55
2023-03-06T23:53:45.974Z,81.15
2023-03-06T23:56:13.641Z,81.04
2023-03-06T23:58:40.880Z,80.95
